PWSweather.com
Personal Weather Stations
Station Observations
EDDERTON
Rossshire, EddertonGB IV191LA

RossshireEddertonGB IV191LA

Lat: 57.838, Lon: -4.176

Elevation: 60

Station Type: Davis Vantage PRO2 Wireless With Solar Sensor

http://www.ardmore-lodge.com

Latest ConditionsUpdated 8:45:01 PM GMT Sunday, Feb 14, 2016
Currently Today's Max Today's Min Today's Average
Temperature 34.5°F1.4°C 41.3°F5.2°C 31.3°F-0.4°C 35.5°F1.9°C
Dew Point 32.4°F0.2°C 36.0°F2.2°C 28.7°F-1.8°C 31.6°F-0.2°C
Winds 1.2 mph NW1.9 kmh NW 15.0 mph NE24.1 kmh NE - 4.2 mph 6.8 kmh
Wind Gusts 2.3 mph3.7 kmh 19.6 mph31.5 kmh - -
Humidity 92% 93% 75% 86%
Pressure 30.06 in1017.9 mb 30.06 in1017.9 mb 29.48 in998.3 mb -
Precipitation - 0.01 in0.3 mm - -
Hour Temp Dew Point Humidity Winds Wind Gusts Pressure Precip Precip Rate Daily Precip Total
08:45 PM 34.5°F1.4°C 32.4°F0.2°C 92% 1.2 mph NW1.9 kmh NW 2.3 mph3.7 kmh 30.06 in1017.9 mb - 0.00 in0.0 mm 0.01 in0.3 mm
08:30 PM 34.6°F1.4°C 32.5°F0.3°C 92% 4.6 mph WNW7.4 kmh WNW 6.9 mph11.1 kmh 30.05 in1017.6 mb - 0.00 in0.0 mm 0.01 in0.3 mm
08:15 PM 34.7°F1.5°C 32.6°F0.3°C 92% 5.8 mph W9.3 kmh W 11.5 mph18.5 kmh 30.05 in1017.6 mb - 0.00 in0.0 mm 0.01 in0.3 mm
08:00 PM 34.6°F1.4°C 32.2°F0.1°C 91% 2.3 mph NW3.7 kmh NW 4.6 mph7.4 kmh 30.05 in1017.6 mb - 0.00 in0.0 mm 0.01 in0.3 mm
07:45 PM 34.8°F1.6°C 32.2°F0.1°C 90% 1.2 mph NW1.9 kmh NW 2.3 mph3.7 kmh 30.04 in1017.3 mb - 0.00 in0.0 mm 0.01 in0.3 mm
07:30 PM 35.4°F1.9°C 32.5°F0.3°C 89% 3.5 mph WNW5.6 kmh WNW 3.5 mph5.6 kmh 30.04 in1017.3 mb - 0.00 in0.0 mm 0.01 in0.3 mm
07:15 PM 35.4°F1.9°C 32.2°F0.1°C 88% 1.2 mph NNW1.9 kmh NNW 3.5 mph5.6 kmh 30.02 in1016.6 mb - 0.00 in0.0 mm 0.01 in0.3 mm
07:00 PM 35.3°F1.8°C 31.8°F-0.1°C 87% 4.6 mph NNW7.4 kmh NNW 6.9 mph11.1 kmh 30.02 in1016.6 mb - 0.00 in0.0 mm 0.01 in0.3 mm
06:45 PM 35.0°F1.7°C 31.6°F-0.2°C 87% 3.5 mph NNW5.6 kmh NNW 4.6 mph7.4 kmh 30.01 in1016.3 mb - 0.00 in0.0 mm 0.01 in0.3 mm
06:30 PM 35.1°F1.7°C 31.6°F-0.2°C 87% 1.2 mph NNW1.9 kmh NNW 2.3 mph3.7 kmh 30.00 in1015.9 mb - 0.00 in0.0 mm 0.01 in0.3 mm
06:15 PM 35.7°F2.1°C 31.9°F-0.1°C 86% 1.2 mph NNW1.9 kmh NNW 2.3 mph3.7 kmh 29.99 in1015.6 mb - 0.00 in0.0 mm 0.01 in0.3 mm
06:00 PM 36.2°F2.3°C 32.4°F0.2°C 86% 5.8 mph NNW9.3 kmh NNW 10.4 mph16.7 kmh 29.98 in1015.2 mb - 0.00 in0.0 mm 0.01 in0.3 mm
05:45 PM 36.2°F2.3°C 31.8°F-0.1°C 84% 4.6 mph NNE7.4 kmh NNE 9.2 mph14.8 kmh 29.96 in1014.6 mb - 0.00 in0.0 mm 0.01 in0.3 mm
05:30 PM 36.7°F2.6°C 32.0°F0.0°C 83% 5.8 mph NNE9.3 kmh NNE 9.2 mph14.8 kmh 29.95 in1014.2 mb - 0.00 in0.0 mm 0.01 in0.3 mm
05:15 PM 37.6°F3.1°C 32.3°F0.2°C 81% 9.2 mph NE14.8 kmh NE 11.5 mph18.5 kmh 29.94 in1013.9 mb - 0.00 in0.0 mm 0.01 in0.3 mm
05:00 PM 38.1°F3.4°C 32.2°F0.1°C 79% 9.2 mph NNE14.8 kmh NNE 13.8 mph22.2 kmh 29.93 in1013.5 mb - 0.00 in0.0 mm 0.01 in0.3 mm
04:45 PM 38.0°F3.3°C 31.4°F-0.3°C 77% 2.3 mph N3.7 kmh N 3.5 mph5.6 kmh 29.92 in1013.2 mb - 0.00 in0.0 mm 0.01 in0.3 mm
04:30 PM 38.8°F3.8°C 31.9°F-0.1°C 76% 1.2 mph N1.9 kmh N 2.3 mph3.7 kmh 29.91 in1012.9 mb - 0.00 in0.0 mm 0.01 in0.3 mm
04:15 PM 39.7°F4.3°C 32.4°F0.2°C 75% 2.3 mph N3.7 kmh N 5.8 mph9.3 kmh 29.90 in1012.5 mb - 0.00 in0.0 mm 0.01 in0.3 mm
04:00 PM 39.7°F4.3°C 33.4°F0.8°C 78% 3.5 mph N5.6 kmh N 4.6 mph7.4 kmh 29.89 in1012.2 mb - 0.00 in0.0 mm 0.01 in0.3 mm
03:45 PM 39.6°F4.2°C 33.9°F1.1°C 80% 3.5 mph N5.6 kmh N 5.8 mph9.3 kmh 29.88 in1011.9 mb - 0.00 in0.0 mm 0.01 in0.3 mm
03:30 PM 39.7°F4.3°C 34.3°F1.3°C 81% 5.8 mph 9.3 kmh 9.2 mph14.8 kmh 29.87 in1011.5 mb - 0.00 in0.0 mm 0.01 in0.3 mm
03:15 PM 39.9°F4.4°C 34.5°F1.4°C 81% 5.8 mph NNW9.3 kmh NNW 8.1 mph13.0 kmh 29.86 in1011.2 mb - 0.00 in0.0 mm 0.01 in0.3 mm
03:00 PM 40.3°F4.6°C 34.6°F1.4°C 80% 5.8 mph NNW9.3 kmh NNW 6.9 mph11.1 kmh 29.85 in1010.8 mb - 0.00 in0.0 mm 0.01 in0.3 mm
02:45 PM 39.7°F4.3°C 34.7°F1.5°C 82% 4.6 mph N7.4 kmh N 5.8 mph9.3 kmh 29.84 in1010.5 mb - 0.00 in0.0 mm 0.01 in0.3 mm
02:30 PM 39.1°F3.9°C 33.1°F0.6°C 79% 5.8 mph NNE9.3 kmh NNE 9.2 mph14.8 kmh 29.83 in1010.2 mb - 0.00 in0.0 mm 0.01 in0.3 mm
02:15 PM 39.3°F4.1°C 33.3°F0.7°C 79% 4.6 mph NNE7.4 kmh NNE 10.4 mph16.7 kmh 29.82 in1009.8 mb - 0.00 in0.0 mm 0.01 in0.3 mm
02:00 PM 39.9°F4.4°C 33.6°F0.9°C 78% 15.0 mph NE24.1 kmh NE 19.6 mph31.5 kmh 29.81 in1009.5 mb - 0.00 in0.0 mm 0.01 in0.3 mm
01:45 PM 41.2°F5.1°C 35.2°F1.8°C 79% 9.2 mph NNE14.8 kmh NNE 15.0 mph24.1 kmh 29.80 in1009.1 mb - 0.00 in0.0 mm 0.01 in0.3 mm
01:30 PM 41.3°F5.2°C 35.6°F2.0°C 80% 8.1 mph NE13.0 kmh NE 11.5 mph18.5 kmh 29.79 in1008.8 mb - 0.00 in0.0 mm 0.01 in0.3 mm
01:15 PM 40.5°F4.7°C 35.7°F2.1°C 83% 4.6 mph NNE7.4 kmh NNE 10.4 mph16.7 kmh 29.79 in1008.8 mb - 0.00 in0.0 mm 0.01 in0.3 mm
01:00 PM 40.1°F4.5°C 35.9°F2.2°C 85% 8.1 mph NE13.0 kmh NE 10.4 mph16.7 kmh 29.78 in1008.5 mb - 0.00 in0.0 mm 0.01 in0.3 mm
12:45 PM 41.1°F5.1°C 36.0°F2.2°C 82% 10.4 mph NNE16.7 kmh NNE 17.3 mph27.8 kmh 29.78 in1008.5 mb - 0.00 in0.0 mm 0.01 in0.3 mm
12:30 PM 40.7°F4.8°C 35.6°F2.0°C 82% 6.9 mph NNE11.1 kmh NNE 11.5 mph18.5 kmh 29.77 in1008.1 mb - 0.00 in0.0 mm 0.01 in0.3 mm
12:15 PM 39.4°F4.1°C 35.3°F1.8°C 85% 6.9 mph NE11.1 kmh NE 9.2 mph14.8 kmh 29.77 in1008.1 mb - 0.00 in0.0 mm 0.01 in0.3 mm
12:00 PM 39.2°F4.0°C 34.8°F1.6°C 84% 8.1 mph NNE13.0 kmh NNE 11.5 mph18.5 kmh 29.76 in1007.8 mb - 0.00 in0.0 mm 0.01 in0.3 mm
11:45 AM 39.7°F4.3°C 35.0°F1.7°C 83% 10.4 mph N16.7 kmh N 12.7 mph20.4 kmh 29.75 in1007.5 mb - 0.00 in0.0 mm 0.01 in0.3 mm
11:30 AM 39.6°F4.2°C 34.6°F1.4°C 82% 3.5 mph NW5.6 kmh NW 3.5 mph5.6 kmh 29.74 in1007.1 mb - 0.00 in0.0 mm 0.01 in0.3 mm
11:15 AM 39.5°F4.2°C 34.8°F1.6°C 83% 6.9 mph N11.1 kmh N 5.8 mph9.3 kmh 29.73 in1006.8 mb - 0.00 in0.0 mm 0.01 in0.3 mm
11:00 AM 38.9°F3.8°C 34.1°F1.2°C 83% 3.5 mph NNW5.6 kmh NNW 5.8 mph9.3 kmh 29.73 in1006.8 mb - 0.01 in0.3 mm 0.01 in0.3 mm
10:45 AM 38.6°F3.7°C 33.9°F1.1°C 83% 5.8 mph NNW9.3 kmh NNW 10.4 mph16.7 kmh 29.72 in1006.4 mb - 0.00 in0.0 mm 0.00 in0.0 mm
10:30 AM 37.8°F3.2°C 33.4°F0.8°C 84% 6.9 mph NNW11.1 kmh NNW 11.5 mph18.5 kmh 29.71 in1006.1 mb - 0.00 in0.0 mm 0.00 in0.0 mm
10:15 AM 37.4°F3.0°C 33.0°F0.6°C 84% 5.8 mph NNW9.3 kmh NNW 11.5 mph18.5 kmh 29.70 in1005.8 mb - 0.00 in0.0 mm 0.00 in0.0 mm
10:00 AM 36.7°F2.6°C 32.6°F0.3°C 85% 6.9 mph N11.1 kmh N 9.2 mph14.8 kmh 29.69 in1005.4 mb - 0.00 in0.0 mm 0.00 in0.0 mm
09:45 AM 35.5°F1.9°C 31.8°F-0.1°C 86% 5.8 mph N9.3 kmh N 10.4 mph16.7 kmh 29.69 in1005.4 mb - 0.00 in0.0 mm 0.00 in0.0 mm
09:30 AM 34.9°F1.6°C 30.9°F-0.6°C 85% 4.6 mph NW7.4 kmh NW 6.9 mph11.1 kmh 29.68 in1005.1 mb - 0.00 in0.0 mm 0.00 in0.0 mm
09:15 AM 35.2°F1.8°C 31.1°F-0.5°C 85% 5.8 mph N9.3 kmh N 4.6 mph7.4 kmh 29.68 in1005.1 mb - 0.00 in0.0 mm 0.00 in0.0 mm
09:00 AM 34.2°F1.2°C 30.7°F-0.7°C 87% 3.5 mph NNW5.6 kmh NNW 4.6 mph7.4 kmh 29.66 in1004.4 mb - 0.00 in0.0 mm 0.00 in0.0 mm
08:45 AM 33.5°F0.8°C 29.8°F-1.2°C 86% 3.5 mph NNW5.6 kmh NNW 11.5 mph18.5 kmh 29.66 in1004.4 mb - 0.00 in0.0 mm 0.00 in0.0 mm
08:30 AM 33.4°F0.8°C 29.9°F-1.2°C 87% 3.5 mph NNW5.6 kmh NNW 3.5 mph5.6 kmh 29.66 in1004.4 mb - 0.00 in0.0 mm 0.00 in0.0 mm
08:15 AM 32.9°F0.5°C 29.5°F-1.4°C 87% 3.5 mph N5.6 kmh N 6.9 mph11.1 kmh 29.65 in1004.1 mb - 0.00 in0.0 mm 0.00 in0.0 mm
08:00 AM 33.0°F0.6°C 29.3°F-1.5°C 86% 2.3 mph NW3.7 kmh NW 5.8 mph9.3 kmh 29.64 in1003.7 mb - 0.00 in0.0 mm 0.00 in0.0 mm
07:45 AM 32.7°F0.4°C 29.0°F-1.7°C 86% 1.2 mph NNW1.9 kmh NNW 3.5 mph5.6 kmh 29.63 in1003.4 mb - 0.00 in0.0 mm 0.00 in0.0 mm
07:30 AM 32.7°F0.4°C 28.7°F-1.8°C 85% 2.3 mph NNW3.7 kmh NNW 4.6 mph7.4 kmh 29.62 in1003.0 mb - 0.00 in0.0 mm 0.00 in0.0 mm
07:15 AM 33.2°F0.7°C 29.2°F-1.6°C 85% 3.5 mph NNW5.6 kmh NNW 5.8 mph9.3 kmh 29.61 in1002.7 mb - 0.00 in0.0 mm 0.00 in0.0 mm
07:00 AM 33.5°F0.8°C 29.8°F-1.2°C 86% 8.1 mph N13.0 kmh N 10.4 mph16.7 kmh 29.60 in1002.4 mb - 0.00 in0.0 mm 0.00 in0.0 mm
06:45 AM 33.0°F0.6°C 29.6°F-1.3°C 87% 3.5 mph NNW5.6 kmh NNW 5.8 mph9.3 kmh 29.60 in1002.4 mb - 0.00 in0.0 mm 0.00 in0.0 mm
06:30 AM 32.5°F0.3°C 29.1°F-1.6°C 87% 4.6 mph N7.4 kmh N 5.8 mph9.3 kmh 29.59 in1002.0 mb - 0.00 in0.0 mm 0.00 in0.0 mm
06:15 AM 32.4°F0.2°C 29.0°F-1.7°C 87% Calm Calm 3.5 mph5.6 kmh 29.59 in1002.0 mb - 0.00 in0.0 mm 0.00 in0.0 mm
06:00 AM 32.6°F0.3°C 29.4°F-1.4°C 88% 2.3 mph N3.7 kmh N 3.5 mph5.6 kmh 29.58 in1001.7 mb - 0.00 in0.0 mm 0.00 in0.0 mm
05:45 AM 32.6°F0.3°C 29.4°F-1.4°C 88% 3.5 mph NNE5.6 kmh NNE 4.6 mph7.4 kmh 29.57 in1001.4 mb - 0.00 in0.0 mm 0.00 in0.0 mm
05:30 AM 32.4°F0.2°C 29.5°F-1.4°C 89% 5.8 mph N9.3 kmh N 9.2 mph14.8 kmh 29.56 in1001.0 mb - 0.00 in0.0 mm 0.00 in0.0 mm
05:15 AM 32.4°F0.2°C 29.5°F-1.4°C 89% 2.3 mph N3.7 kmh N 5.8 mph9.3 kmh 29.55 in1000.7 mb - 0.00 in0.0 mm 0.00 in0.0 mm
05:00 AM 32.6°F0.3°C 29.7°F-1.3°C 89% 4.6 mph N7.4 kmh N 5.8 mph9.3 kmh 29.55 in1000.7 mb - 0.00 in0.0 mm 0.00 in0.0 mm
04:45 AM 32.8°F0.4°C 29.9°F-1.2°C 89% 3.5 mph NNW5.6 kmh NNW 3.5 mph5.6 kmh 29.55 in1000.7 mb - 0.00 in0.0 mm 0.00 in0.0 mm
04:30 AM 33.0°F0.6°C 30.1°F-1.1°C 89% 6.9 mph N11.1 kmh N 11.5 mph18.5 kmh 29.54 in1000.3 mb - 0.00 in0.0 mm 0.00 in0.0 mm
04:15 AM 33.0°F0.6°C 30.4°F-0.9°C 90% 6.9 mph N11.1 kmh N 9.2 mph14.8 kmh 29.54 in1000.3 mb - 0.00 in0.0 mm 0.00 in0.0 mm
04:00 AM 32.3°F0.2°C 30.0°F-1.1°C 91% 5.8 mph N9.3 kmh N 8.1 mph13.0 kmh 29.53 in1000.0 mb - 0.00 in0.0 mm 0.00 in0.0 mm
03:45 AM 31.9°F-0.1°C 29.6°F-1.3°C 91% 4.6 mph N7.4 kmh N 5.8 mph9.3 kmh 29.53 in1000.0 mb - 0.00 in0.0 mm 0.00 in0.0 mm
03:30 AM 31.7°F-0.2°C 29.1°F-1.6°C 90% 2.3 mph NNW3.7 kmh NNW 3.5 mph5.6 kmh 29.53 in1000.0 mb - 0.00 in0.0 mm 0.00 in0.0 mm
03:15 AM 31.5°F-0.3°C 28.9°F-1.7°C 90% 2.3 mph N3.7 kmh N 4.6 mph7.4 kmh 29.52 in999.7 mb - 0.00 in0.0 mm 0.00 in0.0 mm
03:00 AM 31.4°F-0.3°C 28.8°F-1.8°C 90% 2.3 mph N3.7 kmh N 3.5 mph5.6 kmh 29.52 in999.7 mb - 0.00 in0.0 mm 0.00 in0.0 mm
02:45 AM 31.7°F-0.2°C 29.1°F-1.6°C 90% 1.2 mph NW1.9 kmh NW 3.5 mph5.6 kmh 29.52 in999.7 mb - 0.00 in0.0 mm 0.00 in0.0 mm
02:30 AM 31.8°F-0.1°C 29.2°F-1.6°C 90% Calm Calm -- 29.52 in999.7 mb - 0.00 in0.0 mm 0.00 in0.0 mm
02:15 AM 31.5°F-0.3°C 28.9°F-1.7°C 90% 2.3 mph NW3.7 kmh NW 3.5 mph5.6 kmh 29.52 in999.7 mb - 0.00 in0.0 mm 0.00 in0.0 mm
02:00 AM 31.3°F-0.4°C 28.7°F-1.8°C 90% 1.2 mph NW1.9 kmh NW 3.5 mph5.6 kmh 29.51 in999.3 mb - 0.00 in0.0 mm 0.00 in0.0 mm
01:45 AM 31.6°F-0.2°C 29.0°F-1.7°C 90% Calm Calm 1.2 mph1.9 kmh 29.51 in999.3 mb - 0.00 in0.0 mm 0.00 in0.0 mm
01:30 AM 31.5°F-0.3°C 29.2°F-1.6°C 91% Calm Calm 2.3 mph3.7 kmh 29.51 in999.3 mb - 0.00 in0.0 mm 0.00 in0.0 mm
01:15 AM 31.4°F-0.3°C 28.8°F-1.8°C 90% Calm Calm -- 29.50 in999.0 mb - 0.00 in0.0 mm 0.00 in0.0 mm
01:00 AM 31.7°F-0.2°C 29.1°F-1.6°C 90% Calm Calm -- 29.49 in998.6 mb - 0.00 in0.0 mm 0.00 in0.0 mm
12:45 AM 31.8°F-0.1°C 29.5°F-1.4°C 91% Calm Calm 1.2 mph1.9 kmh 29.50 in999.0 mb - 0.00 in0.0 mm 0.00 in0.0 mm
12:30 AM 32.0°F0.0°C 29.7°F-1.3°C 91% 2.3 mph NW3.7 kmh NW 3.5 mph5.6 kmh 29.49 in998.6 mb - 0.00 in0.0 mm 0.00 in0.0 mm
12:15 AM 31.8°F-0.1°C 29.8°F-1.2°C 92% 1.2 mph NW1.9 kmh NW 3.5 mph5.6 kmh 29.48 in998.3 mb - 0.00 in0.0 mm 0.00 in0.0 mm
12:00 AM 31.6°F-0.2°C 29.8°F-1.2°C 93% 2.3 mph NW3.7 kmh NW 4.6 mph7.4 kmh 29.48 in998.3 mb - 0.00 in0.0 mm 0.00 in0.0 mm